Wareham, MA (02571)

6:16 AM EST on December 28, 2014 (GMT -0500)
Wareham Middle School | Change Station
CLOSE
Current Station
Personal Weather Station
Location: Wareham, MA
Elevation: 13 ft
Nearby Weather Stations

Elev 13 ft 41.76 °N, 70.72 °W | Updated 37 minutes ago

Mostly Cloudy
Mostly Cloudy
48.5 °F
Feels Like 48 °F
N
2.2
Wind Variable Wind from South
Gusts 8.9 mph

Today
High -- | Low -- °F
--% Chance of Precip.
Yesterday
High -- | Low -- °F
Precip. -- in
7:09 AM 4:19 PM
Waxing Crescent, 46% visible
Pressure 29.87 in
Visibility 10.0 miles
Clouds Mostly Cloudy 8500 ft
Windchill 48 °F
Dew Point 45 °F
Humidity 87%
Rainfall -999.00 in
Snow Depth Not available.
UV 0 out of 12
Pollen .10 out of 12
Air Quality Not available.
Flu Activity Not available.
METAR KPYM 281052Z AUTO 21007KT 10SM BKN085 08/06 A2987 RMK AO2 SLP114 T00830056

More Conditions Fewer Conditions

Pressure 29.87 in
Visibility 10.0 miles
Clouds Mostly Cloudy 8500 ft
Windchill 48 °F
Dew Point 45 °F
Humidity 87%
Rainfall -999.00 in
Snow Depth Not available.
UV 0 out of 12
Pollen .10 out of 12
Air Quality Not available.
Flu Activity Not available.
METAR KPYM 281052Z AUTO 21007KT 10SM BKN085 08/06 A2987 RMK AO2 SLP114 T00830056

More Conditions Fewer Conditions

10-Day Weather Forecast

Almanac

Astronomy

Dec. 28, 2014 Rise Set
Actual Time
Civil Twilight
Nautical Twilight
Astronomical Twilight
Moon
Length of Visible Light
Length of Day
Tomorrow will be .
, % of the Moon is Illuminated

Today's Extremes

State Highs State Lows

Community

WunderPhotos

Upload Photos

1,781,232 photos uploaded!

WunderBlogs® & News

Nearby

Air Quality

  Air Quality AQ Index Pollutant
Not available.

Snow Depth

Station Depth Elevation

Earthquake Activity

City Distance Mag. Time & Date
Minimum magnitude displayed is 2.5.

Coastal Water Temperatures

Place Temperature

Nearby Weather Stations